createdAt,value
2018-10-21T00:00:39.228Z,100637.36
2018-10-21T00:03:09.288Z,100637.33
2018-10-21T00:05:38.324Z,100629.05
2018-10-21T00:08:12.831Z,100626.30
2018-10-21T00:10:42.620Z,100627.13
2018-10-21T00:13:11.493Z,100626.84
2018-10-21T00:15:41.347Z,100628.97
2018-10-21T00:18:11.421Z,100631.84
2018-10-21T00:20:41.352Z,100632.38
2018-10-21T00:23:11.357Z,100633.03
2018-10-21T00:25:40.776Z,100624.51
2018-10-21T00:28:10.801Z,100615.94
2018-10-21T00:30:39.560Z,100612.52
2018-10-21T00:33:09.726Z,100600.88
2018-10-21T00:35:38.325Z,100597.67
2018-10-21T00:38:08.290Z,100601.52
2018-10-21T00:40:38.528Z,100594.16
2018-10-21T00:43:07.857Z,100598.88
2018-10-21T00:45:37.126Z,100602.30
2018-10-21T00:48:05.946Z,100599.84
2018-10-21T00:50:34.508Z,100591.27
2018-10-21T00:53:03.264Z,100585.33
2018-10-21T00:55:32.748Z,100583.94
2018-10-21T00:58:03.052Z,100583.05
2018-10-21T01:00:32.472Z,100580.73
2018-10-21T01:03:01.413Z,100575.97
2018-10-21T01:05:35.491Z,100568.87
2018-10-21T01:08:08.357Z,100571.06
2018-10-21T01:10:38.435Z,100564.45
2018-10-21T01:13:07.193Z,100567.22
2018-10-21T01:15:37.389Z,100566.55
2018-10-21T01:18:07.429Z,100563.91
2018-10-21T01:20:37.916Z,100560.86
2018-10-21T01:23:07.105Z,100567.84
2018-10-21T01:25:36.389Z,100569.23
2018-10-21T01:28:05.188Z,100559.78
2018-10-21T01:30:34.615Z,100560.26
2018-10-21T01:33:03.600Z,100551.86
2018-10-21T01:35:33.156Z,100550.82
2018-10-21T01:38:02.613Z,100547.75
2018-10-21T01:40:35.277Z,100548.63
2018-10-21T01:43:04.589Z,100551.14
2018-10-21T01:45:35.566Z,100549.48
2018-10-21T01:48:06.791Z,100545.70
2018-10-21T01:50:36.557Z,100533.78
2018-10-21T01:53:08.843Z,100541.53
2018-10-21T01:55:38.263Z,100539.11
2018-10-21T01:58:08.278Z,100538.24
2018-10-21T02:00:40.030Z,100535.90
2018-10-21T02:03:08.616Z,100524.38
2018-10-21T02:05:37.635Z,100533.30
2018-10-21T02:08:06.452Z,100530.31
2018-10-21T02:10:35.013Z,100533.53
2018-10-21T02:13:03.622Z,100534.20
2018-10-21T02:15:32.184Z,100538.57
2018-10-21T02:18:00.713Z,100524.11
2018-10-21T02:20:29.348Z,100529.80
2018-10-21T02:22:57.921Z,100525.91
2018-10-21T02:25:26.495Z,100529.22
2018-10-21T02:27:55.152Z,100525.91
2018-10-21T02:30:28.648Z,100521.33
2018-10-21T02:32:58.071Z,100524.91
2018-10-21T02:35:26.628Z,100521.36
2018-10-21T02:37:55.649Z,100521.09
2018-10-21T02:41:38.446Z,100527.33
2018-10-21T02:44:16.913Z,100532.78
2018-10-21T02:46:46.112Z,100534.48
2018-10-21T02:49:15.378Z,100534.44
2018-10-21T02:51:44.068Z,100539.14
2018-10-21T02:54:12.613Z,100538.19
2018-10-21T02:56:41.187Z,100531.28
2018-10-21T02:59:09.712Z,100537.31
2018-10-21T03:01:38.293Z,100540.89
2018-10-21T03:04:06.817Z,100534.48
2018-10-21T03:06:35.700Z,100534.16
2018-10-21T03:09:05.760Z,100535.06
2018-10-21T03:11:34.278Z,100530.91
2018-10-21T03:14:02.927Z,100534.45
2018-10-21T03:16:31.513Z,100532.44
2018-10-21T03:19:00.053Z,100539.75
2018-10-21T03:21:28.649Z,100531.70
2018-10-21T03:23:57.178Z,100538.59
2018-10-21T03:26:25.821Z,100536.95
2018-10-21T03:28:54.340Z,100535.05
2018-10-21T03:31:22.911Z,100536.23
2018-10-21T03:33:51.905Z,100539.36
2018-10-21T03:36:20.498Z,100536.64
2018-10-21T03:38:49.021Z,100538.72
2018-10-21T03:41:17.571Z,100539.55
2018-10-21T03:43:46.090Z,100547.23
2018-10-21T03:46:15.605Z,100543.62
2018-10-21T03:48:44.201Z,100544.70
2018-10-21T03:51:13.383Z,100550.93
2018-10-21T03:53:42.128Z,100556.35
2018-10-21T03:56:10.787Z,100556.52
2018-10-21T03:58:39.635Z,100553.27
2018-10-21T04:01:08.912Z,100555.34
2018-10-21T04:03:37.486Z,100547.30
2018-10-21T04:06:06.159Z,100547.03
2018-10-21T04:08:34.709Z,100544.66
2018-10-21T04:11:03.266Z,100545.64
2018-10-21T04:13:31.787Z,100539.77
2018-10-21T04:16:00.414Z,100539.73
2018-10-21T04:18:28.912Z,100544.44
2018-10-21T04:20:57.501Z,100535.23
2018-10-21T04:23:26.029Z,100530.67
2018-10-21T04:25:55.081Z,100534.65
2018-10-21T04:28:23.607Z,100535.33
2018-10-21T04:30:52.168Z,100538.09
2018-10-21T04:36:17.660Z,100531.91
2018-10-21T04:40:08.559Z,100533.22
2018-10-21T04:42:37.094Z,100536.38
2018-10-21T04:45:06.273Z,100539.86
2018-10-21T04:47:34.844Z,100537.28
2018-10-21T04:50:03.394Z,100532.20
2018-10-21T04:52:32.793Z,100531.92
2018-10-21T04:55:06.538Z,100531.11
2018-10-21T04:57:35.957Z,100526.34
2018-10-21T05:00:05.364Z,100530.77
2018-10-21T05:02:33.925Z,100530.58
2018-10-21T05:05:02.492Z,100530.95
2018-10-21T05:07:31.261Z,100537.48
2018-10-21T05:09:59.811Z,100530.97
2018-10-21T05:12:28.374Z,100531.20
2018-10-21T05:14:56.900Z,100530.84
2018-10-21T05:17:25.497Z,100531.84
2018-10-21T05:19:54.042Z,100523.59
2018-10-21T05:22:22.601Z,100522.77
2018-10-21T05:24:51.137Z,100526.98
2018-10-21T05:27:19.709Z,100521.91
2018-10-21T05:29:48.239Z,100526.64
2018-10-21T05:32:16.795Z,100522.23
2018-10-21T05:34:45.326Z,100525.27
2018-10-21T05:37:13.891Z,100526.66
2018-10-21T05:39:42.410Z,100528.06
2018-10-21T05:42:11.496Z,100524.75
2018-10-21T05:44:40.393Z,100524.09
2018-10-21T05:47:10.060Z,100524.08
2018-10-21T05:49:38.748Z,100526.48
2018-10-21T05:52:07.708Z,100523.94
2018-10-21T05:54:40.383Z,100525.46
2018-10-21T05:57:08.949Z,100526.69
2018-10-21T05:59:37.541Z,100538.06
2018-10-21T06:02:06.239Z,100531.95
2018-10-21T06:04:34.774Z,100530.56
2018-10-21T06:07:03.381Z,100523.70
2018-10-21T06:09:31.905Z,100518.98
2018-10-21T06:12:00.458Z,100517.31
2018-10-21T06:14:29.033Z,100513.07
2018-10-21T06:17:14.056Z,100513.33
2018-10-21T06:19:45.995Z,100513.16
2018-10-21T06:22:16.289Z,100521.91
2018-10-21T06:24:49.029Z,100514.27
2018-10-21T06:27:18.019Z,100518.98
2018-10-21T06:29:46.568Z,100519.31
2018-10-21T06:32:15.217Z,100515.08
2018-10-21T06:34:43.772Z,100514.28
2018-10-21T06:37:14.237Z,100518.83
2018-10-21T06:39:42.935Z,100519.75
2018-10-21T06:42:11.467Z,100529.95
2018-10-21T06:44:40.573Z,100528.68
2018-10-21T06:47:09.809Z,100522.80
2018-10-21T06:49:38.629Z,100529.67
2018-10-21T06:52:14.469Z,100530.27
2018-10-21T06:54:43.285Z,100539.75
2018-10-21T06:57:11.945Z,100537.12
2018-10-21T06:59:40.428Z,100536.61
2018-10-21T07:02:10.673Z,100539.52
2018-10-21T07:04:39.313Z,100545.73
2018-10-21T07:07:07.809Z,100540.92
2018-10-21T07:09:37.349Z,100552.30
2018-10-21T07:12:06.626Z,100545.73
2018-10-21T07:14:35.297Z,100546.77
2018-10-21T07:17:04.129Z,100552.85
2018-10-21T07:19:32.979Z,100541.48
2018-10-21T07:22:01.569Z,100543.52
2018-10-21T07:24:30.128Z,100538.41
2018-10-21T07:26:58.696Z,100539.44
2018-10-21T07:29:27.381Z,100536.72
2018-10-21T07:31:56.165Z,100542.47
2018-10-21T07:34:24.752Z,100543.41
2018-10-21T07:36:54.805Z,100546.80
2018-10-21T07:39:23.827Z,100549.64
2018-10-21T07:41:52.494Z,100550.44
2018-10-21T07:44:21.071Z,100553.69
2018-10-21T07:46:50.340Z,100550.29
2018-10-21T07:49:18.998Z,100547.80
2018-10-21T07:51:48.073Z,100542.55
2018-10-21T07:54:16.976Z,100549.20
2018-10-21T07:56:45.576Z,100548.18
2018-10-21T07:59:14.814Z,100545.48
2018-10-21T08:01:43.441Z,100555.73
2018-10-21T08:04:12.254Z,100543.59
2018-10-21T08:06:52.429Z,100547.95
2018-10-21T08:09:21.105Z,100541.05
2018-10-21T08:11:49.641Z,100541.95
2018-10-21T08:14:18.206Z,100541.82
2018-10-21T08:16:46.728Z,100539.91
2018-10-21T08:19:15.293Z,100541.24
2018-10-21T08:21:43.856Z,100545.14
2018-10-21T08:24:12.428Z,100540.98
2018-10-21T08:26:40.968Z,100544.96
2018-10-21T08:29:09.545Z,100542.20
2018-10-21T08:31:38.076Z,100541.57
2018-10-21T08:34:06.620Z,100541.33
2018-10-21T08:36:35.181Z,100544.48
2018-10-21T08:39:05.893Z,100540.05
2018-10-21T08:41:34.453Z,100543.66
2018-10-21T08:44:02.984Z,100556.03
2018-10-21T08:46:32.270Z,100551.84
2018-10-21T08:49:01.131Z,100555.93
2018-10-21T08:51:30.149Z,100547.19
2018-10-21T08:53:59.709Z,100551.64
2018-10-21T08:56:30.382Z,100554.67
2018-10-21T08:58:59.717Z,100548.50
2018-10-21T09:01:28.715Z,100548.70
2018-10-21T09:03:57.304Z,100543.39
2018-10-21T09:06:25.972Z,100540.08
2018-10-21T09:08:54.513Z,100539.41
2018-10-21T09:11:23.801Z,100539.24
2018-10-21T09:13:52.489Z,100533.31
2018-10-21T09:16:22.452Z,100530.59
2018-10-21T09:18:51.177Z,100529.04
2018-10-21T09:21:20.917Z,100529.83
2018-10-21T09:23:49.546Z,100526.47
2018-10-21T09:26:18.801Z,100524.13
2018-10-21T09:28:48.320Z,100518.46
2018-10-21T09:31:17.323Z,100523.34
2018-10-21T09:33:46.133Z,100524.30
2018-10-21T09:36:14.776Z,100518.32
2018-10-21T09:38:43.519Z,100516.73
2018-10-21T09:41:12.265Z,100514.38
2018-10-21T09:43:42.525Z,100516.98
2018-10-21T09:46:11.872Z,100511.39
2018-10-21T09:48:41.064Z,100511.39
2018-10-21T09:51:09.632Z,100506.74
2018-10-21T09:53:38.212Z,100506.91
2018-10-21T09:56:06.823Z,100509.22
2018-10-21T09:58:36.274Z,100506.47
2018-10-21T10:01:10.098Z,100505.58
2018-10-21T10:03:38.848Z,100495.06
2018-10-21T10:06:08.437Z,100492.17
2018-10-21T10:08:37.252Z,100485.59
2018-10-21T10:11:12.611Z,100477.25
2018-10-21T10:13:41.632Z,100479.12
2018-10-21T10:16:10.396Z,100473.41
2018-10-21T10:18:39.572Z,100476.66
2018-10-21T10:21:08.236Z,100471.36
2018-10-21T10:23:36.870Z,100466.48
2018-10-21T10:26:06.872Z,100468.86
2018-10-21T10:28:35.412Z,100470.31
2018-10-21T10:31:04.363Z,100466.25
2018-10-21T10:33:32.831Z,100462.59
2018-10-21T10:36:03.983Z,100453.31
2018-10-21T10:38:32.681Z,100454.44
2018-10-21T10:41:01.201Z,100446.36
2018-10-21T10:43:30.936Z,100446.72
2018-10-21T10:45:59.753Z,100443.24
2018-10-21T10:48:28.604Z,100449.67
2018-10-21T10:50:57.359Z,100444.84
2018-10-21T10:53:25.993Z,100443.71
2018-10-21T10:55:55.543Z,100438.66
2018-10-21T10:58:24.819Z,100437.58
2018-10-21T11:00:53.433Z,100429.44
2018-10-21T11:03:21.988Z,100424.93
2018-10-21T11:05:51.272Z,100420.36
2018-10-21T11:08:21.335Z,100418.09
2018-10-21T11:10:50.101Z,100409.47
2018-10-21T11:13:19.176Z,100405.95
2018-10-21T11:15:49.205Z,100403.05
2018-10-21T11:18:17.773Z,100393.09
2018-10-21T11:20:46.496Z,100393.09
2018-10-21T11:23:15.102Z,100386.59
2018-10-21T11:25:45.359Z,100391.42
2018-10-21T11:28:13.960Z,100386.61
2018-10-21T11:30:42.488Z,100380.39
2018-10-21T11:33:11.076Z,100377.55
2018-10-21T11:35:39.665Z,100378.70
2018-10-21T11:38:08.261Z,100380.22
2018-10-21T11:40:36.808Z,100390.24
2018-10-21T11:43:05.627Z,100381.06
2018-10-21T11:45:34.204Z,100377.58
2018-10-21T11:48:04.724Z,100374.47
2018-10-21T11:50:33.392Z,100374.98
2018-10-21T11:53:03.005Z,100376.23
2018-10-21T11:55:37.461Z,100370.02
2018-10-21T11:58:11.352Z,100369.72
2018-10-21T12:01:01.706Z,100366.77
2018-10-21T12:03:36.015Z,100359.77
2018-10-21T12:06:05.105Z,100359.16
2018-10-21T12:08:33.667Z,100358.50
2018-10-21T12:11:10.474Z,100352.79
2018-10-21T12:13:39.211Z,100350.78
2018-10-21T12:16:07.763Z,100354.20
2018-10-21T12:18:50.733Z,100347.36
2018-10-21T12:21:19.600Z,100352.69
2018-10-21T12:23:48.157Z,100350.78
2018-10-21T12:26:16.709Z,100347.84
2018-10-21T12:28:47.414Z,100341.44
2018-10-21T12:31:16.556Z,100333.73
2018-10-21T12:33:45.435Z,100337.45
2018-10-21T12:36:15.757Z,100336.74
2018-10-21T12:38:44.361Z,100341.00
2018-10-21T12:41:13.498Z,100335.34
2018-10-21T12:43:42.541Z,100335.82
2018-10-21T12:46:12.373Z,100328.89
2018-10-21T12:48:42.075Z,100327.63
2018-10-21T12:51:12.893Z,100324.91
2018-10-21T12:53:41.631Z,100324.97
2018-10-21T12:56:10.572Z,100316.48
2018-10-21T12:58:39.887Z,100312.41
2018-10-21T13:01:08.908Z,100311.02
2018-10-21T13:03:38.657Z,100312.55
2018-10-21T13:06:07.306Z,100310.59
2018-10-21T13:08:36.772Z,100314.56
2018-10-21T13:11:05.458Z,100320.95
2018-10-21T13:13:34.341Z,100314.78
2018-10-21T13:16:02.972Z,100311.08
2018-10-21T13:18:31.521Z,100320.00
2018-10-21T13:21:00.135Z,100317.53
2018-10-21T13:23:28.701Z,100313.94
2018-10-21T13:25:59.175Z,100316.30
2018-10-21T13:28:27.945Z,100318.95
2018-10-21T13:30:56.305Z,100317.66
2018-10-21T13:33:24.878Z,100297.46
2018-10-21T13:35:53.435Z,100310.56
2018-10-21T13:38:21.975Z,100306.70
2018-10-21T13:40:50.561Z,100300.66
2018-10-21T13:43:19.998Z,100292.16
2018-10-21T13:45:48.638Z,100301.23
2018-10-21T13:48:17.129Z,100305.56
2018-10-21T13:50:45.688Z,100302.23
2018-10-21T13:53:14.278Z,100299.28
2018-10-21T13:55:42.837Z,100304.75
2018-10-21T13:58:11.423Z,100297.87
2018-10-21T14:00:40.011Z,100295.38
2018-10-21T14:03:09.478Z,100292.20
2018-10-21T14:05:38.053Z,100289.89
2018-10-21T14:08:07.072Z,100282.86
2018-10-21T14:10:35.633Z,100287.50
2018-10-21T14:13:06.772Z,100287.73
2018-10-21T14:15:35.446Z,100285.35
2018-10-21T14:18:04.031Z,100283.80
2018-10-21T14:20:32.629Z,100283.72
2018-10-21T14:23:01.160Z,100276.08
2018-10-21T14:25:29.709Z,100278.27
2018-10-21T14:27:58.656Z,100272.00
2018-10-21T14:30:27.951Z,100265.58
2018-10-21T14:32:56.511Z,100263.38
2018-10-21T14:35:25.126Z,100256.46
2018-10-21T14:37:54.744Z,100252.67
2018-10-21T14:40:28.221Z,100250.98
2018-10-21T14:43:01.087Z,100248.87
2018-10-21T14:48:25.696Z,100246.38
2018-10-21T14:51:19.562Z,100242.06
2018-10-21T14:54:20.981Z,100239.34
2018-10-21T14:57:09.378Z,100240.86
2018-10-21T15:00:03.388Z,100240.46
2018-10-21T15:02:36.393Z,100246.26
2018-10-21T15:05:26.496Z,100236.69
2018-10-21T15:08:04.009Z,100234.13
2018-10-21T15:10:43.129Z,100239.86
2018-10-21T15:13:24.073Z,100236.58
2018-10-21T15:15:53.545Z,100243.67
2018-10-21T15:18:22.293Z,100234.23
2018-10-21T15:20:50.886Z,100239.67
2018-10-21T15:23:19.495Z,100231.00
2018-10-21T15:25:48.009Z,100235.03
2018-10-21T15:28:16.661Z,100236.30
2018-10-21T15:30:45.161Z,100243.95
2018-10-21T15:33:13.680Z,100236.82
2018-10-21T15:35:42.230Z,100235.13
2018-10-21T15:38:10.816Z,100227.36
2018-10-21T15:40:39.333Z,100233.48
2018-10-21T15:43:07.866Z,100231.09
2018-10-21T15:45:36.570Z,100228.26
2018-10-21T15:48:05.268Z,100225.00
2018-10-21T15:50:34.340Z,100229.44
2018-10-21T15:53:03.024Z,100228.30
2018-10-21T15:55:31.641Z,100237.29
2018-10-21T15:58:03.308Z,100242.03
2018-10-21T16:00:31.860Z,100236.65
2018-10-21T16:03:00.413Z,100243.23
2018-10-21T16:05:29.268Z,100235.75
2018-10-21T16:07:57.865Z,100238.41
2018-10-21T16:10:26.358Z,100245.16
2018-10-21T16:12:55.026Z,100236.64
2018-10-21T16:15:23.551Z,100236.37
2018-10-21T16:17:52.121Z,100235.98
2018-10-21T16:20:20.637Z,100242.92
2018-10-21T16:22:49.404Z,100239.64
2018-10-21T16:25:18.230Z,100240.37
2018-10-21T16:27:46.838Z,100242.45
2018-10-21T16:30:16.616Z,100237.60
2018-10-21T16:32:45.663Z,100239.20
2018-10-21T16:35:14.520Z,100237.70
2018-10-21T16:37:43.553Z,100241.95
2018-10-21T16:40:15.034Z,100238.67
2018-10-21T16:42:43.958Z,100238.62
2018-10-21T16:45:13.504Z,100233.92
2018-10-21T16:47:42.165Z,100245.78
2018-10-21T16:50:16.438Z,100246.75
2018-10-21T16:52:46.371Z,100256.42
2018-10-21T16:55:17.388Z,100253.09
2018-10-21T16:57:47.307Z,100252.81
2018-10-21T17:00:20.232Z,100250.48
2018-10-21T17:02:48.893Z,100260.44
2018-10-21T17:05:17.488Z,100261.80
2018-10-21T17:07:46.043Z,100268.14
2018-10-21T17:10:14.915Z,100272.96
2018-10-21T17:12:43.160Z,100270.02
2018-10-21T17:15:12.231Z,100273.18
2018-10-21T17:17:41.500Z,100265.98
2018-10-21T17:20:11.807Z,100275.05
2018-10-21T17:22:41.189Z,100266.83
2018-10-21T17:25:09.819Z,100269.69
2018-10-21T17:27:38.385Z,100267.14
2018-10-21T17:30:09.702Z,100267.77
2018-10-21T17:32:38.360Z,100266.78
2018-10-21T17:35:07.709Z,100263.50
2018-10-21T17:37:36.265Z,100263.44
2018-10-21T17:40:04.922Z,100265.44
2018-10-21T17:42:35.725Z,100265.36
2018-10-21T17:45:10.872Z,100260.95
2018-10-21T17:47:39.644Z,100252.91
2018-10-21T17:50:11.636Z,100256.33
2018-10-21T17:52:41.945Z,100252.13
2018-10-21T17:55:10.554Z,100249.80
2018-10-21T17:57:39.245Z,100250.14
2018-10-21T18:00:09.503Z,100253.89
2018-10-21T18:02:38.631Z,100256.19
2018-10-21T18:05:11.945Z,100255.67
2018-10-21T18:07:41.094Z,100258.37
2018-10-21T18:10:10.060Z,100258.21
2018-10-21T18:12:38.741Z,100258.49
2018-10-21T18:15:08.252Z,100256.72
2018-10-21T18:17:38.266Z,100263.98
2018-10-21T18:20:08.257Z,100257.58
2018-10-21T18:22:36.834Z,100254.41
2018-10-21T18:25:05.851Z,100250.61
2018-10-21T18:27:34.444Z,100251.27
2018-10-21T18:30:03.345Z,100248.56
2018-10-21T18:32:32.031Z,100246.69
2018-10-21T18:35:00.920Z,100250.56
2018-10-21T18:37:29.565Z,100253.92
2018-10-21T18:39:58.286Z,100245.22
2018-10-21T18:42:26.855Z,100250.83
2018-10-21T18:44:55.653Z,100251.77
2018-10-21T18:47:27.678Z,100246.48
2018-10-21T18:49:56.316Z,100253.39
2018-10-21T18:52:26.065Z,100249.93
2018-10-21T18:54:55.496Z,100253.83
2018-10-21T18:57:24.053Z,100261.00
2018-10-21T18:59:52.638Z,100259.70
2018-10-21T19:02:23.189Z,100256.42
2018-10-21T19:04:53.765Z,100260.02
2018-10-21T19:07:24.027Z,100257.16
2018-10-21T19:09:52.668Z,100252.14
2018-10-21T19:12:25.957Z,100256.84
2018-10-21T19:15:01.375Z,100258.41
2018-10-21T19:17:33.144Z,100260.92
2018-10-21T19:20:01.717Z,100262.55
2018-10-21T19:22:30.853Z,100259.25
2018-10-21T19:24:59.433Z,100263.15
2018-10-21T19:27:27.955Z,100258.55
2018-10-21T19:29:56.519Z,100260.89
2018-10-21T19:32:25.068Z,100257.77
2018-10-21T19:34:53.693Z,100264.73
2018-10-21T19:37:22.630Z,100264.42
2018-10-21T19:39:51.393Z,100258.10
2018-10-21T19:42:19.910Z,100261.16
2018-10-21T19:44:48.473Z,100260.05
2018-10-21T19:47:17.261Z,100254.55
2018-10-21T19:49:47.083Z,100260.43
2018-10-21T19:52:15.766Z,100255.33
2018-10-21T19:54:46.442Z,100257.68
2018-10-21T19:57:15.289Z,100259.78
2018-10-21T19:59:44.829Z,100264.67
2018-10-21T20:02:18.474Z,100261.52
2018-10-21T20:04:47.089Z,100268.80
2018-10-21T20:07:16.296Z,100265.05
2018-10-21T20:09:45.494Z,100266.34
2018-10-21T20:12:14.281Z,100274.91
2018-10-21T20:14:42.864Z,100269.52
2018-10-21T20:17:16.195Z,100275.87
2018-10-21T20:19:45.277Z,100274.53
2018-10-21T20:22:17.830Z,100274.53
2018-10-21T20:24:46.392Z,100279.70
2018-10-21T20:27:15.042Z,100276.38
2018-10-21T20:29:44.898Z,100286.33
2018-10-21T20:32:14.685Z,100282.47
2018-10-21T20:34:44.301Z,100278.21
2018-10-21T20:37:13.216Z,100279.31
2018-10-21T20:39:41.798Z,100282.56
2018-10-21T20:42:10.685Z,100278.01
2018-10-21T20:44:39.260Z,100275.94
2018-10-21T20:47:07.785Z,100277.69
2018-10-21T20:49:36.365Z,100280.87
2018-10-21T20:52:05.305Z,100275.86
2018-10-21T20:54:39.112Z,100282.26
2018-10-21T20:57:09.037Z,100281.58
2018-10-21T20:59:38.673Z,100282.38
2018-10-21T21:02:07.933Z,100284.36
2018-10-21T21:04:36.678Z,100282.64
2018-10-21T21:07:05.847Z,100286.43
2018-10-21T21:09:35.415Z,100281.95
2018-10-21T21:12:04.567Z,100287.66
2018-10-21T21:14:33.473Z,100279.69
2018-10-21T21:17:02.539Z,100282.55
2018-10-21T21:19:31.108Z,100279.70
2018-10-21T21:22:00.762Z,100274.64
2018-10-21T21:24:29.345Z,100274.99
2018-10-21T21:26:58.780Z,100281.77
2018-10-21T21:29:27.297Z,100282.84
2018-10-21T21:31:55.858Z,100273.52
2018-10-21T21:34:24.398Z,100280.95
2018-10-21T21:36:53.340Z,100273.02
2018-10-21T21:39:21.901Z,100272.62
2018-10-21T21:41:50.497Z,100276.48
2018-10-21T21:44:19.329Z,100278.95
2018-10-21T21:46:50.885Z,100278.59
2018-10-21T21:49:19.469Z,100273.97
2018-10-21T21:51:48.012Z,100273.17
2018-10-21T21:54:16.670Z,100273.21
2018-10-21T21:56:46.895Z,100275.75
2018-10-21T21:59:15.665Z,100274.90
2018-10-21T22:01:44.244Z,100272.03
2018-10-21T22:04:12.841Z,100269.81
2018-10-21T22:06:41.387Z,100268.31
2018-10-21T22:09:12.072Z,100276.36
2018-10-21T22:11:40.909Z,100276.08
2018-10-21T22:14:10.278Z,100279.28
2018-10-21T22:16:38.984Z,100274.34
2018-10-21T22:19:08.370Z,100280.16
2018-10-21T22:21:37.712Z,100283.19
2018-10-21T22:24:07.048Z,100278.02
2018-10-21T22:26:35.610Z,100282.45
2018-10-21T22:29:04.155Z,100286.85
2018-10-21T22:31:33.219Z,100286.07
2018-10-21T22:34:02.191Z,100280.95
2018-10-21T22:36:30.700Z,100276.41
2018-10-21T22:38:59.241Z,100283.46
2018-10-21T22:41:27.807Z,100277.59
2018-10-21T22:43:56.323Z,100280.87
2018-10-21T22:46:25.177Z,100279.02
2018-10-21T22:48:53.735Z,100279.59
2018-10-21T22:51:22.889Z,100282.19
2018-10-21T22:53:51.389Z,100277.91
2018-10-21T22:56:19.945Z,100275.37
2018-10-21T22:58:48.464Z,100274.64
2018-10-21T23:01:17.053Z,100277.42
2018-10-21T23:03:45.572Z,100266.34
2018-10-21T23:06:14.181Z,100270.47
2018-10-21T23:08:42.672Z,100268.16
2018-10-21T23:11:11.201Z,100266.92
2018-10-21T23:13:39.764Z,100267.84
2018-10-21T23:16:08.568Z,100272.44
2018-10-21T23:18:37.168Z,100271.95
2018-10-21T23:21:05.964Z,100274.75
2018-10-21T23:23:34.524Z,100274.37
2018-10-21T23:26:03.069Z,100272.02
2018-10-21T23:28:31.668Z,100273.30
2018-10-21T23:31:00.285Z,100276.30
2018-10-21T23:33:28.831Z,100278.64
2018-10-21T23:35:57.370Z,100277.44
2018-10-21T23:38:25.941Z,100274.48
2018-10-21T23:40:54.462Z,100279.17
2018-10-21T23:43:23.000Z,100274.09
2018-10-21T23:45:51.554Z,100275.75
2018-10-21T23:48:20.548Z,100272.58
2018-10-21T23:50:48.893Z,100273.77
2018-10-21T23:53:17.432Z,100278.73
2018-10-21T23:55:45.944Z,100274.29
2018-10-21T23:58:14.547Z,100275.79
